createdAt,value
2023-05-06T00:01:15.728Z,9.62
2023-05-06T00:03:15.837Z,9.61
2023-05-06T00:06:58.625Z,9.63
2023-05-06T00:08:58.612Z,9.56
2023-05-06T00:10:58.573Z,9.43
2023-05-06T00:12:58.784Z,9.58
2023-05-06T00:14:58.575Z,9.54
2023-05-06T00:16:58.567Z,9.49
2023-05-06T00:18:58.757Z,9.54
2023-05-06T00:21:22.193Z,9.47
2023-05-06T00:23:22.173Z,9.4
2023-05-06T00:25:22.142Z,9.45
2023-05-06T00:27:22.178Z,9.4
2023-05-06T00:29:22.240Z,9.44
2023-05-06T00:31:22.226Z,9.5
2023-05-06T00:33:22.151Z,9.48
2023-05-06T00:35:22.206Z,9.5
2023-05-06T00:36:51.697Z,9.35
2023-05-06T00:38:51.491Z,9.24
2023-05-06T00:40:51.735Z,9.23
2023-05-06T00:42:51.764Z,9.2
2023-05-06T00:44:51.884Z,9.18
2023-05-06T00:46:53.784Z,9.08
2023-05-06T00:48:51.392Z,9.02
2023-05-06T00:51:37.756Z,9.16
2023-05-06T00:53:37.646Z,9.21
2023-05-06T00:55:37.752Z,9.19
2023-05-06T00:57:37.661Z,9.15
2023-05-06T00:59:37.861Z,9.16
2023-05-06T01:01:37.963Z,9.01
2023-05-06T01:03:37.741Z,9.05
2023-05-06T01:05:37.833Z,9.17
2023-05-06T01:07:08.381Z,9.12
2023-05-06T01:09:08.649Z,9.18
2023-05-06T01:11:08.291Z,9.21
2023-05-06T01:13:08.362Z,9.18
2023-05-06T01:15:08.683Z,9.11
2023-05-06T01:17:08.348Z,9.05
2023-05-06T01:19:08.592Z,9.05
2023-05-06T01:21:57.163Z,9.04
2023-05-06T01:23:57.173Z,9.12
2023-05-06T01:25:57.207Z,9.1
2023-05-06T01:27:57.155Z,9.02
2023-05-06T01:29:57.232Z,8.92
2023-05-06T01:31:57.147Z,8.92
2023-05-06T01:33:57.294Z,8.91
2023-05-06T01:35:57.132Z,8.95
2023-05-06T01:37:52.795Z,8.85
2023-05-06T01:39:52.985Z,8.88
2023-05-06T01:41:52.787Z,8.78
2023-05-06T01:43:52.874Z,8.76
2023-05-06T01:45:52.858Z,8.87
2023-05-06T01:47:52.801Z,8.83
2023-05-06T01:49:52.870Z,8.8
2023-05-06T01:52:52.790Z,8.82
2023-05-06T01:54:52.740Z,8.84
2023-05-06T01:56:52.752Z,8.83
2023-05-06T01:58:52.733Z,8.86
2023-05-06T02:00:52.771Z,8.88
2023-05-06T02:02:52.922Z,8.89
2023-05-06T02:04:52.749Z,8.83
2023-05-06T02:07:46.014Z,8.85
2023-05-06T02:09:45.970Z,8.82
2023-05-06T02:11:45.994Z,8.79
2023-05-06T02:13:45.967Z,8.75
2023-05-06T02:15:45.975Z,8.69
2023-05-06T02:17:46.081Z,8.6
2023-05-06T02:19:45.995Z,8.69
2023-05-06T02:23:01.996Z,8.68
2023-05-06T02:25:01.912Z,8.74
2023-05-06T02:27:01.910Z,8.73
2023-05-06T02:29:01.968Z,8.73
2023-05-06T02:31:01.953Z,8.57
2023-05-06T02:33:01.961Z,8.59
2023-05-06T02:35:01.921Z,8.59
2023-05-06T02:38:28.678Z,8.6
2023-05-06T02:40:28.517Z,8.57
2023-05-06T02:42:28.604Z,8.58
2023-05-06T02:44:28.504Z,8.51
2023-05-06T02:46:28.642Z,8.49
2023-05-06T02:48:28.559Z,8.5
2023-05-06T02:50:28.513Z,8.46
2023-05-06T02:53:07.403Z,8.47
2023-05-06T02:55:07.593Z,8.42
2023-05-06T02:57:07.272Z,8.41
2023-05-06T02:59:07.216Z,8.31
2023-05-06T03:01:07.397Z,8.35
2023-05-06T03:03:07.274Z,8.33
2023-05-06T03:05:07.262Z,8.34
2023-05-06T03:07:07.189Z,8.4
2023-05-06T03:08:54.985Z,8.46
2023-05-06T03:10:55.012Z,8.39
2023-05-06T03:12:54.954Z,8.55
2023-05-06T03:14:54.961Z,8.53
2023-05-06T03:16:55.068Z,8.51
2023-05-06T03:18:54.977Z,8.59
2023-05-06T03:20:54.990Z,8.6
2023-05-06T03:23:29.949Z,8.57
2023-05-06T03:25:29.960Z,8.57
2023-05-06T03:27:30.133Z,8.63
2023-05-06T03:29:29.980Z,8.64
2023-05-06T03:31:29.999Z,8.71
2023-05-06T03:33:29.993Z,8.87
2023-05-06T03:35:30.124Z,10.15
2023-05-06T03:39:17.071Z,12.43
2023-05-06T03:41:17.095Z,13.58
2023-05-06T03:43:17.083Z,14.58
2023-05-06T03:45:17.034Z,15.44
2023-05-06T03:47:17.067Z,16.15
2023-05-06T03:49:17.033Z,16.79
2023-05-06T03:51:17.049Z,17.5
2023-05-06T03:54:29.304Z,18.31
2023-05-06T03:56:29.315Z,18.95
2023-05-06T03:58:29.475Z,19.81
2023-05-06T04:00:29.278Z,20.61
2023-05-06T04:02:29.490Z,21.19
2023-05-06T04:04:29.291Z,21.81
2023-05-06T04:06:29.346Z,22.34
2023-05-06T04:09:02.876Z,22.3
2023-05-06T04:11:02.883Z,22.91
2023-05-06T04:13:02.883Z,23.34
2023-05-06T04:15:02.955Z,23.59
2023-05-06T04:17:02.948Z,23.63
2023-05-06T04:19:05.036Z,22.78
2023-05-06T04:21:02.797Z,22.38
2023-05-06T04:24:35.938Z,22.3
2023-05-06T04:26:36.046Z,22.23
2023-05-06T04:28:35.930Z,22.44
2023-05-06T04:30:36.111Z,22.78
2023-05-06T04:32:36.035Z,23.26
2023-05-06T04:34:35.942Z,24.38
2023-05-06T04:36:36.038Z,25.86
2023-05-06T04:40:05.537Z,27.49
2023-05-06T04:42:05.579Z,27.95
2023-05-06T04:44:05.511Z,28.66
2023-05-06T04:46:05.665Z,27.18
2023-05-06T04:48:05.624Z,22.15
2023-05-06T04:50:05.581Z,19.97
2023-05-06T04:52:05.544Z,18.75
2023-05-06T04:54:59.082Z,17.76
2023-05-06T04:56:59.102Z,17.08
2023-05-06T04:58:59.156Z,17.05
2023-05-06T05:00:59.186Z,17.25
2023-05-06T05:02:59.274Z,18.76
2023-05-06T05:04:59.431Z,20.77
2023-05-06T05:06:59.176Z,21.83
2023-05-06T05:09:36.319Z,22.11
2023-05-06T05:11:36.331Z,22.25
2023-05-06T05:13:36.297Z,22.3
2023-05-06T05:15:36.295Z,22.29
2023-05-06T05:17:36.361Z,22.42
2023-05-06T05:19:36.397Z,22.16
2023-05-06T05:21:36.295Z,21.61
2023-05-06T05:23:36.303Z,21.61
2023-05-06T05:25:31.663Z,21.8
2023-05-06T05:27:31.633Z,21.8
2023-05-06T05:29:31.629Z,21.22
2023-05-06T05:31:31.703Z,21.04
2023-05-06T05:33:31.796Z,20.22
2023-05-06T05:35:31.862Z,19.57
2023-05-06T05:37:31.698Z,19.26
2023-05-06T05:40:00.997Z,20.41
2023-05-06T05:42:00.948Z,20.67
2023-05-06T05:44:01.017Z,21.13
2023-05-06T05:46:00.996Z,21.18
2023-05-06T05:48:01.003Z,21.07
2023-05-06T05:50:01.064Z,21.47
2023-05-06T05:52:01.302Z,21.56
2023-05-06T05:55:08.090Z,21.31
2023-05-06T05:57:07.933Z,21.29
2023-05-06T05:59:07.865Z,21.55
2023-05-06T06:01:07.974Z,19.94
2023-05-06T06:03:08.216Z,20.35
2023-05-06T06:05:08.015Z,20.21
2023-05-06T06:07:08.066Z,20.7
2023-05-06T06:09:07.935Z,21.27
2023-05-06T06:10:24.617Z,21.36
2023-05-06T06:12:24.599Z,20.77
2023-05-06T06:14:24.629Z,19.79
2023-05-06T06:16:24.644Z,19.19
2023-05-06T06:18:24.595Z,19.15
2023-05-06T06:20:24.676Z,18.98
2023-05-06T06:22:24.758Z,18.97
2023-05-06T06:26:07.329Z,18.83
2023-05-06T06:28:07.139Z,18.72
2023-05-06T06:30:07.241Z,18.71
2023-05-06T06:32:06.863Z,18.62
2023-05-06T06:34:06.933Z,18.52
2023-05-06T06:36:06.600Z,18.22
2023-05-06T06:38:06.769Z,17.85
2023-05-06T06:40:30.596Z,18.08
2023-05-06T06:42:30.759Z,18.2
2023-05-06T06:44:30.763Z,18.3
2023-05-06T06:46:30.641Z,18.39
2023-05-06T06:48:30.697Z,18.52
2023-05-06T06:50:30.646Z,18.26
2023-05-06T06:52:30.634Z,18.43
2023-05-06T06:54:30.914Z,18.48
2023-05-06T06:55:51.960Z,19.09
2023-05-06T06:57:52.026Z,19.32
2023-05-06T06:59:52.145Z,19.41
2023-05-06T07:01:52.186Z,19.07
2023-05-06T07:03:52.015Z,20.14
2023-05-06T07:05:52.150Z,19.71
2023-05-06T07:07:51.907Z,19.1
2023-05-06T07:10:55.673Z,20.2
2023-05-06T07:12:55.403Z,19.67
2023-05-06T07:14:55.413Z,20.11
2023-05-06T07:16:55.518Z,20.04
2023-05-06T07:18:55.438Z,21.11
2023-05-06T07:20:55.394Z,21.28
2023-05-06T07:22:55.482Z,20.9
2023-05-06T07:24:55.410Z,21.04
2023-05-06T07:26:39.350Z,20.81
2023-05-06T07:28:39.340Z,21.12
2023-05-06T07:30:39.368Z,20.78
2023-05-06T07:32:39.382Z,21.35
2023-05-06T07:34:39.447Z,20.38
2023-05-06T07:36:40.223Z,19.69
2023-05-06T07:38:39.418Z,19.72
2023-05-06T07:42:06.931Z,19.95
2023-05-06T07:44:06.746Z,20.83
2023-05-06T07:46:06.692Z,21.4
2023-05-06T07:48:06.820Z,21.74
2023-05-06T07:50:06.707Z,22.01
2023-05-06T07:52:06.726Z,21.66
2023-05-06T07:54:06.752Z,21.46
2023-05-06T07:56:57.074Z,21.74
2023-05-06T07:58:57.129Z,21.83
2023-05-06T08:00:57.075Z,21.92
2023-05-06T08:02:57.145Z,22.26
2023-05-06T08:04:57.112Z,22.66
2023-05-06T08:06:57.153Z,21.73
2023-05-06T08:08:57.139Z,22.15
2023-05-06T08:12:26.607Z,22.92
2023-05-06T08:14:26.690Z,22.62
2023-05-06T08:16:26.587Z,22.68
2023-05-06T08:18:26.648Z,22.11
2023-05-06T08:20:26.552Z,20.76
2023-05-06T08:22:26.962Z,20.34
2023-05-06T08:24:26.522Z,20.02
2023-05-06T08:26:42.204Z,20.48
2023-05-06T08:28:41.929Z,20.39
2023-05-06T08:30:41.819Z,20.33
2023-05-06T08:32:41.816Z,20.92
2023-05-06T08:34:41.853Z,19.9
2023-05-06T08:36:41.880Z,20.1
2023-05-06T08:38:41.722Z,20.73
2023-05-06T08:40:41.759Z,20.62
2023-05-06T08:42:20.859Z,20.58
2023-05-06T08:44:20.812Z,20.9
2023-05-06T08:46:20.916Z,21.8
2023-05-06T08:48:20.840Z,21.59
2023-05-06T08:50:20.828Z,21.56
2023-05-06T08:52:20.841Z,21.01
2023-05-06T08:54:20.840Z,21.22
2023-05-06T08:57:58.444Z,21.22
2023-05-06T08:59:58.641Z,21.23
2023-05-06T09:01:58.718Z,21.34
2023-05-06T09:03:58.373Z,21.54
2023-05-06T09:05:58.406Z,21.91
2023-05-06T09:07:58.273Z,22.61
2023-05-06T09:09:58.473Z,22.05
2023-05-06T09:13:03.705Z,22.81
2023-05-06T09:15:03.785Z,22.26
2023-05-06T09:17:03.840Z,23.28
2023-05-06T09:19:03.649Z,23.21
2023-05-06T09:21:03.715Z,23.81
2023-05-06T09:23:03.637Z,23.35
2023-05-06T09:25:03.627Z,22.57
2023-05-06T09:28:00.587Z,22.49
2023-05-06T09:30:00.596Z,21.91
2023-05-06T09:32:00.655Z,22.22
2023-05-06T09:34:00.705Z,22.56
2023-05-06T09:36:00.729Z,22.19
2023-05-06T09:38:00.583Z,21.86
2023-05-06T09:40:00.581Z,21.65
2023-05-06T09:42:43.652Z,22.37
2023-05-06T09:44:43.751Z,21.56
2023-05-06T09:46:43.788Z,20.88
2023-05-06T09:48:43.654Z,20.81
2023-05-06T09:50:43.769Z,20.84
2023-05-06T09:52:43.658Z,20.96
2023-05-06T09:54:43.649Z,21.42
2023-05-06T09:58:21.262Z,20.26
2023-05-06T10:00:21.211Z,20.73
2023-05-06T10:02:21.458Z,20.51
2023-05-06T10:04:22.160Z,20.73
2023-05-06T10:06:21.216Z,20.54
2023-05-06T10:08:20.928Z,20.41
2023-05-06T10:10:21.086Z,20.4
2023-05-06T10:13:31.607Z,20.57
2023-05-06T10:15:31.451Z,20.6
2023-05-06T10:17:31.276Z,20.06
2023-05-06T10:19:31.306Z,20.53
2023-05-06T10:21:31.372Z,20.1
2023-05-06T10:23:31.253Z,19.9
2023-05-06T10:25:31.348Z,20.3
2023-05-06T10:28:38.593Z,20.7
2023-05-06T10:30:38.663Z,20.71
2023-05-06T10:32:38.720Z,20.26
2023-05-06T10:34:38.833Z,19.72
2023-05-06T10:36:39.022Z,19.64
2023-05-06T10:38:38.964Z,20.57
2023-05-06T10:40:38.550Z,21.09
2023-05-06T10:43:40.629Z,21.39
2023-05-06T10:45:40.620Z,20.51
2023-05-06T10:47:40.615Z,21.42
2023-05-06T10:49:40.743Z,22.66
2023-05-06T10:51:40.609Z,22.39
2023-05-06T10:53:40.825Z,21.67
2023-05-06T10:55:40.751Z,20.44
2023-05-06T10:58:41.871Z,19.93
2023-05-06T11:00:41.794Z,20.52
2023-05-06T11:02:41.761Z,21.02
2023-05-06T11:04:41.792Z,20.64
2023-05-06T11:06:41.746Z,19.63
2023-05-06T11:08:41.804Z,19.87
2023-05-06T11:10:41.860Z,19.71
2023-05-06T11:13:49.022Z,21.99
2023-05-06T11:15:48.043Z,20.73
2023-05-06T11:17:47.977Z,19.95
2023-05-06T11:19:48.005Z,21.11
2023-05-06T11:21:49.488Z,21.09
2023-05-06T11:23:47.939Z,19.94
2023-05-06T11:25:48.123Z,20.63
2023-05-06T11:28:53.787Z,20.68
2023-05-06T11:30:53.857Z,19.75
2023-05-06T11:32:53.743Z,19.69
2023-05-06T11:34:53.677Z,21.08
2023-05-06T11:36:53.873Z,20.74
2023-05-06T11:38:53.801Z,21.11
2023-05-06T11:40:54.037Z,20.91
2023-05-06T11:42:53.698Z,20.67
2023-05-06T11:44:06.502Z,21.61
2023-05-06T11:46:06.575Z,21.06
2023-05-06T11:48:06.518Z,20.15
2023-05-06T11:50:06.490Z,21.6
2023-05-06T11:52:06.603Z,20.52
2023-05-06T11:54:06.573Z,21.01
2023-05-06T11:56:06.550Z,21.08
2023-05-06T11:59:27.381Z,21.08
2023-05-06T12:01:27.332Z,20.18
2023-05-06T12:03:27.359Z,19.72
2023-05-06T12:05:27.357Z,20.12
2023-05-06T12:07:27.346Z,20.21
2023-05-06T12:09:27.315Z,20.08
2023-05-06T12:11:27.473Z,20.97
2023-05-06T12:14:36.160Z,21.25
2023-05-06T12:16:36.159Z,21.05
2023-05-06T12:18:36.246Z,21.31
2023-05-06T12:20:36.261Z,20.5
2023-05-06T12:22:36.146Z,20.96
2023-05-06T12:24:36.109Z,20.76
2023-05-06T12:26:36.192Z,21.1
2023-05-06T12:29:43.489Z,20.97
2023-05-06T12:31:43.335Z,21.1
2023-05-06T12:33:43.341Z,21.27
2023-05-06T12:35:43.360Z,22.14
2023-05-06T12:37:43.374Z,20.47
2023-05-06T12:39:43.396Z,21.37
2023-05-06T12:41:43.550Z,20.65
2023-05-06T12:44:44.973Z,21.6
2023-05-06T12:46:44.932Z,20.73
2023-05-06T12:48:44.975Z,21.86
2023-05-06T12:50:44.979Z,22.16
2023-05-06T12:52:44.917Z,22.02
2023-05-06T12:54:44.993Z,22.52
2023-05-06T12:56:45.055Z,22.31
2023-05-06T12:58:44.970Z,21.17
2023-05-06T13:00:36.539Z,20.91
2023-05-06T13:02:36.485Z,20.95
2023-05-06T13:04:36.452Z,21.02
2023-05-06T13:06:36.440Z,21.44
2023-05-06T13:08:36.372Z,21.06
2023-05-06T13:10:36.465Z,20.84
2023-05-06T13:12:36.545Z,20
2023-05-06T13:15:45.243Z,21.01
2023-05-06T13:17:45.375Z,20.86
2023-05-06T13:19:45.212Z,21.13
2023-05-06T13:21:45.265Z,20.7
2023-05-06T13:23:45.256Z,20.61
2023-05-06T13:26:00.644Z,19.78
2023-05-06T13:27:45.376Z,19.3
2023-05-06T13:30:38.097Z,20.3
2023-05-06T13:32:38.323Z,20.46
2023-05-06T13:34:38.049Z,20.38
2023-05-06T13:36:38.063Z,20.7
2023-05-06T13:38:38.130Z,20.18
2023-05-06T13:40:38.120Z,20.88
2023-05-06T13:42:38.090Z,20.97
2023-05-06T13:45:55.205Z,19.71
2023-05-06T13:47:55.215Z,19.91
2023-05-06T13:49:55.164Z,20.83
2023-05-06T13:51:55.189Z,20.37
2023-05-06T13:53:55.099Z,20.62
2023-05-06T13:55:55.169Z,20.52
2023-05-06T13:57:55.133Z,19.71
2023-05-06T14:01:08.008Z,19.93
2023-05-06T14:03:08.116Z,20.04
2023-05-06T14:05:08.072Z,19.82
2023-05-06T14:07:08.052Z,19.66
2023-05-06T14:09:08.281Z,19.81
2023-05-06T14:11:07.983Z,19.98
2023-05-06T14:13:08.266Z,19.39
2023-05-06T14:15:52.413Z,19.6
2023-05-06T14:17:52.430Z,19.32
2023-05-06T14:19:52.539Z,19.47
2023-05-06T14:21:52.625Z,19.36
2023-05-06T14:23:52.525Z,19.37
2023-05-06T14:25:52.310Z,19.98
2023-05-06T14:27:52.369Z,20.47
2023-05-06T14:31:39.176Z,18.97
2023-05-06T14:33:39.187Z,19.31
2023-05-06T14:35:39.286Z,19.24
2023-05-06T14:37:39.212Z,19.32
2023-05-06T14:39:39.356Z,19.93
2023-05-06T14:41:39.193Z,19.83
2023-05-06T14:43:39.109Z,19.51
2023-05-06T14:46:30.607Z,19.37
2023-05-06T14:48:30.505Z,19.47
2023-05-06T14:50:30.549Z,19.59
2023-05-06T14:52:30.632Z,19.96
2023-05-06T14:54:30.491Z,19.31
2023-05-06T14:56:30.531Z,19.22
2023-05-06T14:58:30.463Z,19.56
2023-05-06T15:01:31.838Z,19.9
2023-05-06T15:03:31.766Z,18.82
2023-05-06T15:05:31.838Z,19.6
2023-05-06T15:07:31.815Z,19.76
2023-05-06T15:09:31.860Z,19.44
2023-05-06T15:11:31.764Z,19.15
2023-05-06T15:13:31.767Z,18.77
2023-05-06T15:17:04.708Z,19.28
2023-05-06T15:19:04.539Z,19.57
2023-05-06T15:21:04.585Z,19.3
2023-05-06T15:23:04.518Z,19.39
2023-05-06T15:25:04.648Z,18.8
2023-05-06T15:27:04.534Z,19.49
2023-05-06T15:29:04.547Z,19.47
2023-05-06T15:32:06.001Z,19.06
2023-05-06T15:34:06.006Z,18.69
2023-05-06T15:36:06.045Z,18.93
2023-05-06T15:38:06.157Z,18.86
2023-05-06T15:40:06.106Z,19.18
2023-05-06T15:42:06.268Z,18.48
2023-05-06T15:44:06.474Z,19.2
2023-05-06T15:47:20.647Z,19.3
2023-05-06T15:49:47.206Z,19.22
2023-05-06T15:51:20.598Z,18.89
2023-05-06T15:53:20.639Z,19.19
2023-05-06T15:55:20.574Z,18.57
2023-05-06T15:57:20.658Z,18.78
2023-05-06T15:59:20.602Z,18.62
2023-05-06T16:04:16.253Z,19.25
2023-05-06T16:06:16.050Z,19.49
2023-05-06T16:08:16.097Z,19.65
2023-05-06T16:10:16.100Z,19.67
2023-05-06T16:12:16.079Z,19.43
2023-05-06T16:14:16.172Z,19.44
2023-05-06T16:16:59.426Z,19.56
2023-05-06T16:18:59.459Z,19.53
2023-05-06T16:20:59.448Z,19.53
2023-05-06T16:22:59.421Z,19.5
2023-05-06T16:24:59.505Z,19.47
2023-05-06T16:26:59.441Z,19.41
2023-05-06T16:29:00.217Z,19.36
2023-05-06T16:30:59.570Z,19.15
2023-05-06T16:33:05.233Z,19.11
2023-05-06T16:35:05.066Z,19.03
2023-05-06T16:37:05.096Z,18.97
2023-05-06T16:39:05.141Z,18.87
2023-05-06T16:41:05.081Z,18.81
2023-05-06T16:43:05.061Z,18.74
2023-05-06T16:45:05.164Z,18.67
2023-05-06T16:47:55.350Z,18.59
2023-05-06T16:49:55.245Z,18.48
2023-05-06T16:51:55.218Z,18.22
2023-05-06T16:53:55.261Z,18.22
2023-05-06T16:55:55.203Z,18.21
2023-05-06T16:57:55.288Z,18.1
2023-05-06T16:59:55.213Z,18.01
2023-05-06T17:02:47.515Z,18.06
2023-05-06T17:04:47.425Z,17.96
2023-05-06T17:06:47.402Z,17.93
2023-05-06T17:08:47.280Z,17.83
2023-05-06T17:10:47.431Z,17.79
2023-05-06T17:12:47.365Z,17.8
2023-05-06T17:14:47.302Z,17.72
2023-05-06T17:17:58.057Z,17.6
2023-05-06T17:19:58.079Z,17.5
2023-05-06T17:21:57.981Z,17.42
2023-05-06T17:23:57.995Z,17.32
2023-05-06T17:25:57.929Z,17.21
2023-05-06T17:27:58.000Z,17.08
2023-05-06T17:29:57.950Z,17
2023-05-06T17:33:17.445Z,16.88
2023-05-06T17:35:17.462Z,16.78
2023-05-06T17:37:17.294Z,16.76
2023-05-06T17:39:17.360Z,16.62
2023-05-06T17:41:17.318Z,16.59
2023-05-06T17:43:17.334Z,16.45
2023-05-06T17:45:17.297Z,16.33
2023-05-06T17:48:11.510Z,16.26
2023-05-06T17:50:11.639Z,16.2
2023-05-06T17:52:11.484Z,16.09
2023-05-06T17:54:11.549Z,16.03
2023-05-06T17:56:11.487Z,15.95
2023-05-06T17:58:11.478Z,15.86
2023-05-06T18:00:11.521Z,15.8
2023-05-06T18:03:45.285Z,15.73
2023-05-06T18:05:45.396Z,15.63
2023-05-06T18:07:45.326Z,15.59
2023-05-06T18:09:45.217Z,15.49
2023-05-06T18:11:45.207Z,15.39
2023-05-06T18:13:45.179Z,15.39
2023-05-06T18:15:45.438Z,15.29
2023-05-06T18:18:33.995Z,15.19
2023-05-06T18:20:34.017Z,15.17
2023-05-06T18:22:34.123Z,15
2023-05-06T18:24:34.215Z,15
2023-05-06T18:26:43.099Z,14.94
2023-05-06T18:28:34.080Z,14.91
2023-05-06T18:30:34.094Z,14.89
2023-05-06T18:33:53.889Z,14.85
2023-05-06T18:35:53.917Z,14.79
2023-05-06T18:37:53.892Z,14.75
2023-05-06T18:39:53.981Z,14.59
2023-05-06T18:41:53.922Z,14.71
2023-05-06T18:43:53.901Z,14.68
2023-05-06T18:45:54.039Z,14.58
2023-05-06T18:48:59.701Z,14.56
2023-05-06T18:50:59.746Z,14.58
2023-05-06T18:52:59.727Z,14.55
2023-05-06T18:54:59.841Z,14.44
2023-05-06T18:56:59.839Z,14.34
2023-05-06T18:58:59.906Z,14.19
2023-05-06T19:00:59.773Z,14.28
2023-05-06T19:04:02.783Z,14.21
2023-05-06T19:06:02.818Z,14.21
2023-05-06T19:08:02.775Z,14.22
2023-05-06T19:10:02.873Z,14.21
2023-05-06T19:12:02.737Z,14.15
2023-05-06T19:14:02.750Z,14.04
2023-05-06T19:16:03.122Z,13.97
2023-05-06T19:18:02.771Z,13.96
2023-05-06T19:19:12.855Z,13.94
2023-05-06T19:21:13.023Z,13.91
2023-05-06T19:23:12.821Z,13.89
2023-05-06T19:25:12.976Z,13.87
2023-05-06T19:27:12.896Z,13.87
2023-05-06T19:29:12.820Z,13.82
2023-05-06T19:31:12.866Z,13.73
2023-05-06T19:33:12.920Z,13.72
2023-05-06T19:34:38.749Z,13.73
2023-05-06T19:36:38.704Z,13.63
2023-05-06T19:38:38.674Z,13.59
2023-05-06T19:40:38.760Z,13.59
2023-05-06T19:42:38.644Z,13.63
2023-05-06T19:44:38.685Z,13.59
2023-05-06T19:46:38.686Z,13.58
2023-05-06T19:50:09.043Z,13.48
2023-05-06T19:52:08.696Z,13.47
2023-05-06T19:54:08.789Z,13.47
2023-05-06T19:56:08.904Z,13.43
2023-05-06T19:58:08.717Z,13.43
2023-05-06T20:00:08.881Z,13.38
2023-05-06T20:02:08.939Z,13.34
2023-05-06T20:05:30.325Z,13.29
2023-05-06T20:07:30.159Z,13.27
2023-05-06T20:09:30.217Z,13.23
2023-05-06T20:11:30.338Z,13.22
2023-05-06T20:13:30.245Z,13.13
2023-05-06T20:15:30.276Z,13.06
2023-05-06T20:17:30.197Z,13.03
2023-05-06T20:19:59.175Z,12.99
2023-05-06T20:21:59.121Z,12.99
2023-05-06T20:23:59.062Z,13.08
2023-05-06T20:25:59.184Z,13.04
2023-05-06T20:27:59.213Z,13.04
2023-05-06T20:29:59.157Z,12.99
2023-05-06T20:31:59.172Z,12.9
2023-05-06T20:35:00.942Z,12.98
2023-05-06T20:37:00.776Z,12.94
2023-05-06T20:39:00.887Z,12.89
2023-05-06T20:41:00.836Z,12.86
2023-05-06T20:43:00.947Z,12.9
2023-05-06T20:45:01.034Z,12.89
2023-05-06T20:47:00.784Z,12.84
2023-05-06T20:49:00.767Z,12.85
2023-05-06T20:50:46.702Z,12.81
2023-05-06T20:52:46.615Z,12.73
2023-05-06T20:54:46.568Z,12.79
2023-05-06T20:56:46.591Z,12.77
2023-05-06T20:58:46.624Z,12.77
2023-05-06T21:00:46.639Z,12.67
2023-05-06T21:02:46.618Z,12.81
2023-05-06T21:05:58.790Z,12.68
2023-05-06T21:07:58.649Z,12.64
2023-05-06T21:09:58.696Z,12.59
2023-05-06T21:11:58.720Z,12.52
2023-05-06T21:13:58.690Z,12.59
2023-05-06T21:15:58.733Z,12.53
2023-05-06T21:17:58.803Z,12.53
2023-05-06T21:20:41.597Z,12.58
2023-05-06T21:22:41.336Z,12.54
2023-05-06T21:24:41.316Z,12.49
2023-05-06T21:26:41.455Z,12.51
2023-05-06T21:28:41.361Z,12.49
2023-05-06T21:30:41.486Z,12.43
2023-05-06T21:32:41.755Z,12.34
2023-05-06T21:36:25.828Z,12.35
2023-05-06T21:38:25.572Z,12.32
2023-05-06T21:40:25.574Z,12.22
2023-05-06T21:42:25.597Z,12.37
2023-05-06T21:44:25.585Z,12.39
2023-05-06T21:46:25.676Z,12.36
2023-05-06T21:48:25.571Z,12.3
2023-05-06T21:51:10.227Z,12.3
2023-05-06T21:53:10.251Z,12.25
2023-05-06T21:55:10.337Z,12.27
2023-05-06T21:57:10.261Z,12.24
2023-05-06T21:59:10.211Z,12.13
2023-05-06T22:01:10.217Z,12.13
2023-05-06T22:03:10.388Z,12.11
2023-05-06T22:06:33.424Z,12.11
2023-05-06T22:08:33.270Z,12.1
2023-05-06T22:10:33.371Z,12.04
2023-05-06T22:12:33.218Z,12
2023-05-06T22:14:40.396Z,11.97
2023-05-06T22:16:33.294Z,11.98
2023-05-06T22:18:33.193Z,11.99
2023-05-06T22:21:56.163Z,11.96
2023-05-06T22:23:56.215Z,11.93
2023-05-06T22:25:57.079Z,11.93
2023-05-06T22:27:56.053Z,11.93
2023-05-06T22:29:56.129Z,11.88
2023-05-06T22:31:56.189Z,11.85
2023-05-06T22:33:56.055Z,11.83
2023-05-06T22:37:08.328Z,11.82
2023-05-06T22:39:08.158Z,11.7
2023-05-06T22:41:08.180Z,11.48
2023-05-06T22:43:08.131Z,11.53
2023-05-06T22:45:08.312Z,11.55
2023-05-06T22:47:08.099Z,11.55
2023-05-06T22:49:08.144Z,11.58
2023-05-06T22:51:49.373Z,11.48
2023-05-06T22:53:49.477Z,11.46
2023-05-06T22:55:49.320Z,11.36
2023-05-06T22:57:49.371Z,11.35
2023-05-06T22:59:49.347Z,11.4
2023-05-06T23:01:49.387Z,11.35
2023-05-06T23:03:49.453Z,11.34
2023-05-06T23:07:07.013Z,11.36
2023-05-06T23:09:07.107Z,11.37
2023-05-06T23:11:06.916Z,11.32
2023-05-06T23:13:07.024Z,11.31
2023-05-06T23:15:06.915Z,11.29
2023-05-06T23:17:06.994Z,11.25
2023-05-06T23:19:06.922Z,11.16
2023-05-06T23:21:59.087Z,11.26
2023-05-06T23:23:59.063Z,11.18
2023-05-06T23:25:59.203Z,10.99
2023-05-06T23:27:59.067Z,10.96
2023-05-06T23:29:59.077Z,10.99
2023-05-06T23:31:59.078Z,11.09
2023-05-06T23:33:59.059Z,11.15
2023-05-06T23:37:31.548Z,11.06
2023-05-06T23:39:31.475Z,11.05
2023-05-06T23:41:31.656Z,11.02
2023-05-06T23:43:31.456Z,11.02
2023-05-06T23:45:31.446Z,10.98
2023-05-06T23:47:31.537Z,10.98
2023-05-06T23:49:31.469Z,10.92
2023-05-06T23:52:56.929Z,10.88
2023-05-06T23:54:56.801Z,10.89
2023-05-06T23:56:56.935Z,10.87
2023-05-06T23:58:56.797Z,10.77
